sensor_id;sensor_type;location;lat;lon;timestamp;temperature;humidity
15967;DHT22;15175;48.154;11.534;2022-07-18T00:00:24;21.20;84.30
15967;DHT22;15175;48.154;11.534;2022-07-18T00:02:51;21.20;84.10
15967;DHT22;15175;48.154;11.534;2022-07-18T00:05:18;21.10;84.20
15967;DHT22;15175;48.154;11.534;2022-07-18T00:07:45;21.20;84.40
15967;DHT22;15175;48.154;11.534;2022-07-18T00:10:13;21.10;84.70
15967;DHT22;15175;48.154;11.534;2022-07-18T00:12:40;21.00;85.30
15967;DHT22;15175;48.154;11.534;2022-07-18T00:15:07;20.90;85.60
15967;DHT22;15175;48.154;11.534;2022-07-18T00:17:37;20.90;85.80
15967;DHT22;15175;48.154;11.534;2022-07-18T00:20:06;20.90;85.40
15967;DHT22;15175;48.154;11.534;2022-07-18T00:22:34;20.90;85.50
15967;DHT22;15175;48.154;11.534;2022-07-18T00:25:01;20.90;85.50
15967;DHT22;15175;48.154;11.534;2022-07-18T00:27:29;20.90;85.60
15967;DHT22;15175;48.154;11.534;2022-07-18T00:29:56;20.90;85.50
15967;DHT22;15175;48.154;11.534;2022-07-18T00:32:23;20.90;85.50
15967;DHT22;15175;48.154;11.534;2022-07-18T00:34:51;21.00;85.70
15967;DHT22;15175;48.154;11.534;2022-07-18T00:37:18;20.90;85.30
15967;DHT22;15175;48.154;11.534;2022-07-18T00:39:45;20.90;85.60
15967;DHT22;15175;48.154;11.534;2022-07-18T00:42:12;20.90;85.30
15967;DHT22;15175;48.154;11.534;2022-07-18T00:44:39;20.80;85.90
15967;DHT22;15175;48.154;11.534;2022-07-18T00:47:06;20.80;85.70
15967;DHT22;15175;48.154;11.534;2022-07-18T00:49:34;20.80;85.90
15967;DHT22;15175;48.154;11.534;2022-07-18T00:52:03;20.70;86.00
15967;DHT22;15175;48.154;11.534;2022-07-18T00:54:30;20.70;86.60
15967;DHT22;15175;48.154;11.534;2022-07-18T00:56:58;20.70;88.40
15967;DHT22;15175;48.154;11.534;2022-07-18T00:59:26;20.60;88.10
15967;DHT22;15175;48.154;11.534;2022-07-18T01:02:13;20.50;88.20
15967;DHT22;15175;48.154;11.534;2022-07-18T01:04:39;20.50;88.40
15967;DHT22;15175;48.154;11.534;2022-07-18T01:07:08;20.40;88.90
15967;DHT22;15175;48.154;11.534;2022-07-18T01:09:36;20.20;89.30
15967;DHT22;15175;48.154;11.534;2022-07-18T01:12:03;20.20;89.70
15967;DHT22;15175;48.154;11.534;2022-07-18T01:14:31;20.20;90.00
15967;DHT22;15175;48.154;11.534;2022-07-18T01:16:58;20.10;89.90
15967;DHT22;15175;48.154;11.534;2022-07-18T01:19:25;20.10;89.80
15967;DHT22;15175;48.154;11.534;2022-07-18T01:21:54;20.20;89.90
15967;DHT22;15175;48.154;11.534;2022-07-18T01:24:21;20.20;90.00
15967;DHT22;15175;48.154;11.534;2022-07-18T01:26:48;20.10;90.30
15967;DHT22;15175;48.154;11.534;2022-07-18T01:29:15;20.00;90.60
15967;DHT22;15175;48.154;11.534;2022-07-18T01:31:42;19.90;90.80
15967;DHT22;15175;48.154;11.534;2022-07-18T01:34:09;19.90;91.00
15967;DHT22;15175;48.154;11.534;2022-07-18T01:36:38;19.80;91.10
15967;DHT22;15175;48.154;11.534;2022-07-18T01:39:06;19.80;91.10
15967;DHT22;15175;48.154;11.534;2022-07-18T01:41:33;19.80;91.10
15967;DHT22;15175;48.154;11.534;2022-07-18T01:44:01;19.80;91.20
15967;DHT22;15175;48.154;11.534;2022-07-18T01:46:28;19.80;91.40
15967;DHT22;15175;48.154;11.534;2022-07-18T01:48:55;19.80;91.40
15967;DHT22;15175;48.154;11.534;2022-07-18T01:51:22;19.90;91.20
15967;DHT22;15175;48.154;11.534;2022-07-18T01:53:55;19.90;90.60
15967;DHT22;15175;48.154;11.534;2022-07-18T01:56:25;19.90;90.70
15967;DHT22;15175;48.154;11.534;2022-07-18T01:58:52;19.90;90.90
15967;DHT22;15175;48.154;11.534;2022-07-18T02:01:20;19.90;90.90
15967;DHT22;15175;48.154;11.534;2022-07-18T02:03:47;19.90;91.10
15967;DHT22;15175;48.154;11.534;2022-07-18T02:06:14;19.90;91.00
15967;DHT22;15175;48.154;11.534;2022-07-18T02:08:41;19.80;90.80
15967;DHT22;15175;48.154;11.534;2022-07-18T02:11:08;19.90;91.00
15967;DHT22;15175;48.154;11.534;2022-07-18T02:13:36;19.90;91.20
15967;DHT22;15175;48.154;11.534;2022-07-18T02:16:04;19.90;91.30
15967;DHT22;15175;48.154;11.534;2022-07-18T02:18:31;19.90;91.60
15967;DHT22;15175;48.154;11.534;2022-07-18T02:20:58;19.90;91.60
15967;DHT22;15175;48.154;11.534;2022-07-18T02:23:26;19.80;91.30
15967;DHT22;15175;48.154;11.534;2022-07-18T02:25:53;19.80;91.40
15967;DHT22;15175;48.154;11.534;2022-07-18T02:28:21;19.80;91.50
15967;DHT22;15175;48.154;11.534;2022-07-18T02:30:50;19.70;91.60
15967;DHT22;15175;48.154;11.534;2022-07-18T02:33:17;19.70;91.70
15967;DHT22;15175;48.154;11.534;2022-07-18T02:35:44;19.70;92.10
15967;DHT22;15175;48.154;11.534;2022-07-18T02:38:12;19.60;92.00
15967;DHT22;15175;48.154;11.534;2022-07-18T02:40:39;19.60;92.00
15967;DHT22;15175;48.154;11.534;2022-07-18T02:43:06;19.60;92.10
15967;DHT22;15175;48.154;11.534;2022-07-18T02:45:33;19.60;92.30
15967;DHT22;15175;48.154;11.534;2022-07-18T02:48:01;19.50;92.30
15967;DHT22;15175;48.154;11.534;2022-07-18T02:50:29;19.50;92.50
15967;DHT22;15175;48.154;11.534;2022-07-18T02:52:56;19.40;92.40
15967;DHT22;15175;48.154;11.534;2022-07-18T02:55:23;19.50;92.50
15967;DHT22;15175;48.154;11.534;2022-07-18T02:57:51;19.40;92.50
15967;DHT22;15175;48.154;11.534;2022-07-18T03:00:18;19.40;93.00
15967;DHT22;15175;48.154;11.534;2022-07-18T03:02:45;19.30;92.90
15967;DHT22;15175;48.154;11.534;2022-07-18T03:05:14;19.30;92.80
15967;DHT22;15175;48.154;11.534;2022-07-18T03:07:41;19.30;92.60
15967;DHT22;15175;48.154;11.534;2022-07-18T03:10:09;19.30;92.80
15967;DHT22;15175;48.154;11.534;2022-07-18T03:12:36;19.30;92.80
15967;DHT22;15175;48.154;11.534;2022-07-18T03:15:04;19.30;92.80
15967;DHT22;15175;48.154;11.534;2022-07-18T03:17:31;19.30;93.10
15967;DHT22;15175;48.154;11.534;2022-07-18T03:19:58;19.20;93.00
15967;DHT22;15175;48.154;11.534;2022-07-18T03:22:27;19.20;93.30
15967;DHT22;15175;48.154;11.534;2022-07-18T03:24:54;19.20;93.70
15967;DHT22;15175;48.154;11.534;2022-07-18T03:27:21;19.10;93.50
15967;DHT22;15175;48.154;11.534;2022-07-18T03:29:48;19.10;93.70
15967;DHT22;15175;48.154;11.534;2022-07-18T03:32:15;19.00;94.00
15967;DHT22;15175;48.154;11.534;2022-07-18T03:34:42;19.00;94.10
15967;DHT22;15175;48.154;11.534;2022-07-18T03:37:10;19.00;94.20
15967;DHT22;15175;48.154;11.534;2022-07-18T03:39:38;18.90;94.10
15967;DHT22;15175;48.154;11.534;2022-07-18T03:42:05;18.90;94.30
15967;DHT22;15175;48.154;11.534;2022-07-18T03:44:32;18.90;94.30
15967;DHT22;15175;48.154;11.534;2022-07-18T03:46:59;18.80;94.70
15967;DHT22;15175;48.154;11.534;2022-07-18T03:49:26;18.80;94.70
15967;DHT22;15175;48.154;11.534;2022-07-18T03:51:53;18.80;94.90
15967;DHT22;15175;48.154;11.534;2022-07-18T03:54:21;18.80;94.80
15967;DHT22;15175;48.154;11.534;2022-07-18T03:56:51;18.80;94.90
15967;DHT22;15175;48.154;11.534;2022-07-18T03:59:19;18.80;94.60
15967;DHT22;15175;48.154;11.534;2022-07-18T04:01:46;18.70;94.90
15967;DHT22;15175;48.154;11.534;2022-07-18T04:04:13;18.70;94.90
15967;DHT22;15175;48.154;11.534;2022-07-18T04:06:40;18.70;94.80
15967;DHT22;15175;48.154;11.534;2022-07-18T04:09:07;18.70;95.40
15967;DHT22;15175;48.154;11.534;2022-07-18T04:11:34;18.70;95.50
15967;DHT22;15175;48.154;11.534;2022-07-18T04:14:02;18.70;95.80
15967;DHT22;15175;48.154;11.534;2022-07-18T04:16:30;18.70;95.30
15967;DHT22;15175;48.154;11.534;2022-07-18T04:18:57;18.70;95.60
15967;DHT22;15175;48.154;11.534;2022-07-18T04:21:24;18.70;95.80
15967;DHT22;15175;48.154;11.534;2022-07-18T04:23:51;18.70;95.70
15967;DHT22;15175;48.154;11.534;2022-07-18T04:26:18;18.70;95.80
15967;DHT22;15175;48.154;11.534;2022-07-18T04:28:45;18.70;95.70
15967;DHT22;15175;48.154;11.534;2022-07-18T04:31:14;18.70;95.80
15967;DHT22;15175;48.154;11.534;2022-07-18T04:33:41;18.70;95.90
15967;DHT22;15175;48.154;11.534;2022-07-18T04:36:08;18.80;95.80
15967;DHT22;15175;48.154;11.534;2022-07-18T04:38:35;18.80;95.80
15967;DHT22;15175;48.154;11.534;2022-07-18T04:41:03;18.80;95.90
15967;DHT22;15175;48.154;11.534;2022-07-18T04:43:31;18.80;95.90
15967;DHT22;15175;48.154;11.534;2022-07-18T04:45:58;18.80;95.70
15967;DHT22;15175;48.154;11.534;2022-07-18T04:48:26;18.80;95.80
15967;DHT22;15175;48.154;11.534;2022-07-18T04:50:54;18.90;95.70
15967;DHT22;15175;48.154;11.534;2022-07-18T04:53:21;18.90;95.80
15967;DHT22;15175;48.154;11.534;2022-07-18T04:55:48;19.00;95.70
15967;DHT22;15175;48.154;11.534;2022-07-18T04:58:15;18.90;95.80
15967;DHT22;15175;48.154;11.534;2022-07-18T05:00:42;18.90;95.80
15967;DHT22;15175;48.154;11.534;2022-07-18T05:03:09;18.90;95.80
15967;DHT22;15175;48.154;11.534;2022-07-18T05:05:38;18.90;95.90
15967;DHT22;15175;48.154;11.534;2022-07-18T05:08:05;19.00;95.80
15967;DHT22;15175;48.154;11.534;2022-07-18T05:10:33;19.10;95.60
15967;DHT22;15175;48.154;11.534;2022-07-18T05:13:00;19.10;95.70
15967;DHT22;15175;48.154;11.534;2022-07-18T05:15:27;19.20;95.70
15967;DHT22;15175;48.154;11.534;2022-07-18T05:17:54;19.30;95.60
15967;DHT22;15175;48.154;11.534;2022-07-18T05:20:23;19.30;95.70
15967;DHT22;15175;48.154;11.534;2022-07-18T05:22:52;19.40;95.70
15967;DHT22;15175;48.154;11.534;2022-07-18T05:25:19;19.50;95.20
15967;DHT22;15175;48.154;11.534;2022-07-18T05:27:48;19.50;95.10
15967;DHT22;15175;48.154;11.534;2022-07-18T05:30:15;19.60;95.10
15967;DHT22;15175;48.154;11.534;2022-07-18T05:32:43;19.70;95.30
15967;DHT22;15175;48.154;11.534;2022-07-18T05:35:12;19.70;95.10
15967;DHT22;15175;48.154;11.534;2022-07-18T05:37:39;19.80;95.00
15967;DHT22;15175;48.154;11.534;2022-07-18T05:40:11;19.90;95.10
15967;DHT22;15175;48.154;11.534;2022-07-18T05:42:38;20.00;95.00
15967;DHT22;15175;48.154;11.534;2022-07-18T05:45:06;20.10;94.90
15967;DHT22;15175;48.154;11.534;2022-07-18T05:47:34;20.30;94.70
15967;DHT22;15175;48.154;11.534;2022-07-18T05:50:01;20.40;94.60
15967;DHT22;15175;48.154;11.534;2022-07-18T05:52:29;20.60;94.40
15967;DHT22;15175;48.154;11.534;2022-07-18T05:54:56;20.90;94.30
15967;DHT22;15175;48.154;11.534;2022-07-18T05:57:24;21.20;94.00
15967;DHT22;15175;48.154;11.534;2022-07-18T05:59:52;21.50;93.30
15967;DHT22;15175;48.154;11.534;2022-07-18T06:02:19;21.80;93.00
15967;DHT22;15175;48.154;11.534;2022-07-18T06:04:46;22.10;92.60
15967;DHT22;15175;48.154;11.534;2022-07-18T06:07:13;22.40;92.10
15967;DHT22;15175;48.154;11.534;2022-07-18T06:09:40;22.70;91.90
15967;DHT22;15175;48.154;11.534;2022-07-18T06:12:07;23.00;91.60
15967;DHT22;15175;48.154;11.534;2022-07-18T06:14:36;23.30;91.10
15967;DHT22;15175;48.154;11.534;2022-07-18T06:17:04;23.70;90.70
15967;DHT22;15175;48.154;11.534;2022-07-18T06:19:31;24.00;90.30
15967;DHT22;15175;48.154;11.534;2022-07-18T06:21:58;24.30;89.80
15967;DHT22;15175;48.154;11.534;2022-07-18T06:24:26;24.50;89.00
15967;DHT22;15175;48.154;11.534;2022-07-18T06:26:53;24.90;87.70
15967;DHT22;15175;48.154;11.534;2022-07-18T06:29:20;25.10;86.80
15967;DHT22;15175;48.154;11.534;2022-07-18T06:31:48;25.40;86.00
15967;DHT22;15175;48.154;11.534;2022-07-18T06:34:15;25.70;85.10
15967;DHT22;15175;48.154;11.534;2022-07-18T06:36:42;25.90;83.70
15967;DHT22;15175;48.154;11.534;2022-07-18T06:39:09;26.20;82.80
15967;DHT22;15175;48.154;11.534;2022-07-18T06:41:37;26.50;81.70
15967;DHT22;15175;48.154;11.534;2022-07-18T06:44:12;26.70;80.30
15967;DHT22;15175;48.154;11.534;2022-07-18T06:46:39;26.90;80.60
15967;DHT22;15175;48.154;11.534;2022-07-18T06:49:08;27.10;80.70
15967;DHT22;15175;48.154;11.534;2022-07-18T06:51:35;27.40;79.70
15967;DHT22;15175;48.154;11.534;2022-07-18T06:54:03;27.50;76.70
15967;DHT22;15175;48.154;11.534;2022-07-18T06:56:30;27.60;75.40
15967;DHT22;15175;48.154;11.534;2022-07-18T06:58:57;27.90;74.60
15967;DHT22;15175;48.154;11.534;2022-07-18T07:01:24;27.80;74.00
15967;DHT22;15175;48.154;11.534;2022-07-18T07:03:51;27.80;73.60
15967;DHT22;15175;48.154;11.534;2022-07-18T07:06:20;28.00;73.60
15967;DHT22;15175;48.154;11.534;2022-07-18T07:08:47;28.20;73.20
15967;DHT22;15175;48.154;11.534;2022-07-18T07:11:14;28.40;72.50
15967;DHT22;15175;48.154;11.534;2022-07-18T07:13:41;28.50;72.30
15967;DHT22;15175;48.154;11.534;2022-07-18T07:16:08;28.70;71.80
15967;DHT22;15175;48.154;11.534;2022-07-18T07:18:35;28.60;71.20
15967;DHT22;15175;48.154;11.534;2022-07-18T07:21:02;28.80;72.30
15967;DHT22;15175;48.154;11.534;2022-07-18T07:23:31;29.10;72.30
15967;DHT22;15175;48.154;11.534;2022-07-18T07:25:58;29.30;71.30
15967;DHT22;15175;48.154;11.534;2022-07-18T07:28:26;29.50;67.30
15967;DHT22;15175;48.154;11.534;2022-07-18T07:30:53;29.60;65.60
15967;DHT22;15175;48.154;11.534;2022-07-18T07:33:20;29.40;64.10
15967;DHT22;15175;48.154;11.534;2022-07-18T07:35:47;29.50;64.30
15967;DHT22;15175;48.154;11.534;2022-07-18T07:38:14;29.40;65.10
15967;DHT22;15175;48.154;11.534;2022-07-18T07:40:46;29.70;64.70
15967;DHT22;15175;48.154;11.534;2022-07-18T07:43:15;29.70;63.20
15967;DHT22;15175;48.154;11.534;2022-07-18T07:45:43;29.60;62.20
15967;DHT22;15175;48.154;11.534;2022-07-18T07:48:12;29.60;62.40
15967;DHT22;15175;48.154;11.534;2022-07-18T07:50:39;29.90;62.60
15967;DHT22;15175;48.154;11.534;2022-07-18T07:53:07;29.90;62.00
15967;DHT22;15175;48.154;11.534;2022-07-18T07:55:35;29.80;61.80
15967;DHT22;15175;48.154;11.534;2022-07-18T07:58:04;29.70;62.50
15967;DHT22;15175;48.154;11.534;2022-07-18T08:00:31;30.00;62.80
15967;DHT22;15175;48.154;11.534;2022-07-18T08:03:00;30.00;61.30
15967;DHT22;15175;48.154;11.534;2022-07-18T08:05:29;29.90;61.60
15967;DHT22;15175;48.154;11.534;2022-07-18T08:07:57;30.30;61.30
15967;DHT22;15175;48.154;11.534;2022-07-18T08:10:25;30.10;59.40
15967;DHT22;15175;48.154;11.534;2022-07-18T08:12:52;30.20;59.40
15967;DHT22;15175;48.154;11.534;2022-07-18T08:15:21;30.40;60.40
15967;DHT22;15175;48.154;11.534;2022-07-18T08:17:49;30.50;58.70
15967;DHT22;15175;48.154;11.534;2022-07-18T08:20:16;30.70;60.10
15967;DHT22;15175;48.154;11.534;2022-07-18T08:22:54;30.90;59.10
15967;DHT22;15175;48.154;11.534;2022-07-18T08:25:22;30.90;57.50
15967;DHT22;15175;48.154;11.534;2022-07-18T08:27:49;30.90;57.40
15967;DHT22;15175;48.154;11.534;2022-07-18T08:30:16;31.00;56.90
15967;DHT22;15175;48.154;11.534;2022-07-18T08:32:45;31.00;56.10
15967;DHT22;15175;48.154;11.534;2022-07-18T08:35:12;31.00;54.40
15967;DHT22;15175;48.154;11.534;2022-07-18T08:37:39;31.10;54.80
15967;DHT22;15175;48.154;11.534;2022-07-18T08:40:07;31.10;55.10
15967;DHT22;15175;48.154;11.534;2022-07-18T08:42:35;31.20;55.80
15967;DHT22;15175;48.154;11.534;2022-07-18T08:45:04;31.20;57.10
15967;DHT22;15175;48.154;11.534;2022-07-18T08:47:32;31.20;57.40
15967;DHT22;15175;48.154;11.534;2022-07-18T08:50:01;31.30;55.00
15967;DHT22;15175;48.154;11.534;2022-07-18T08:52:29;31.30;55.60
15967;DHT22;15175;48.154;11.534;2022-07-18T08:54:56;31.40;55.30
15967;DHT22;15175;48.154;11.534;2022-07-18T08:57:23;31.40;54.00
15967;DHT22;15175;48.154;11.534;2022-07-18T08:59:50;31.50;54.80
15967;DHT22;15175;48.154;11.534;2022-07-18T09:02:18;31.50;54.80
15967;DHT22;15175;48.154;11.534;2022-07-18T09:04:45;31.60;54.70
15967;DHT22;15175;48.154;11.534;2022-07-18T09:07:25;31.60;53.10
15967;DHT22;15175;48.154;11.534;2022-07-18T09:09:55;31.60;52.70
15967;DHT22;15175;48.154;11.534;2022-07-18T09:12:23;31.80;53.70
15967;DHT22;15175;48.154;11.534;2022-07-18T09:14:50;31.90;54.40
15967;DHT22;15175;48.154;11.534;2022-07-18T09:17:19;31.80;53.70
15967;DHT22;15175;48.154;11.534;2022-07-18T09:19:58;31.90;52.70
15967;DHT22;15175;48.154;11.534;2022-07-18T09:22:31;31.90;51.30
15967;DHT22;15175;48.154;11.534;2022-07-18T09:25:02;31.90;52.20
15967;DHT22;15175;48.154;11.534;2022-07-18T09:27:32;31.80;52.40
15967;DHT22;15175;48.154;11.534;2022-07-18T09:30:19;31.70;53.10
15967;DHT22;15175;48.154;11.534;2022-07-18T09:32:49;31.70;53.80
15967;DHT22;15175;48.154;11.534;2022-07-18T09:35:19;31.80;54.00
15967;DHT22;15175;48.154;11.534;2022-07-18T09:38:04;31.80;52.10
15967;DHT22;15175;48.154;11.534;2022-07-18T09:40:33;31.80;53.00
15967;DHT22;15175;48.154;11.534;2022-07-18T09:43:03;31.80;53.50
15967;DHT22;15175;48.154;11.534;2022-07-18T09:45:31;31.80;51.90
15967;DHT22;15175;48.154;11.534;2022-07-18T09:48:00;31.70;52.30
15967;DHT22;15175;48.154;11.534;2022-07-18T09:50:30;31.90;51.70
15967;DHT22;15175;48.154;11.534;2022-07-18T09:53:05;31.80;51.70
15967;DHT22;15175;48.154;11.534;2022-07-18T09:55:33;31.80;51.80
15967;DHT22;15175;48.154;11.534;2022-07-18T09:58:03;31.50;51.10
15967;DHT22;15175;48.154;11.534;2022-07-18T10:00:32;31.40;52.20
15967;DHT22;15175;48.154;11.534;2022-07-18T10:03:00;31.30;51.80
15967;DHT22;15175;48.154;11.534;2022-07-18T10:05:29;31.30;51.50
15967;DHT22;15175;48.154;11.534;2022-07-18T10:07:57;31.30;51.70
15967;DHT22;15175;48.154;11.534;2022-07-18T10:10:27;31.40;52.50
15967;DHT22;15175;48.154;11.534;2022-07-18T10:12:56;31.40;50.90
15967;DHT22;15175;48.154;11.534;2022-07-18T10:15:26;31.30;51.00
15967;DHT22;15175;48.154;11.534;2022-07-18T10:17:53;31.20;51.60
15967;DHT22;15175;48.154;11.534;2022-07-18T10:20:32;31.10;51.70
15967;DHT22;15175;48.154;11.534;2022-07-18T10:23:07;31.10;51.10
15967;DHT22;15175;48.154;11.534;2022-07-18T10:25:36;31.10;51.80
15967;DHT22;15175;48.154;11.534;2022-07-18T10:28:06;31.00;51.50
15967;DHT22;15175;48.154;11.534;2022-07-18T10:30:43;30.90;51.60
15967;DHT22;15175;48.154;11.534;2022-07-18T10:33:44;31.00;52.20
15967;DHT22;15175;48.154;11.534;2022-07-18T10:36:14;31.10;51.60
15967;DHT22;15175;48.154;11.534;2022-07-18T10:39:05;31.30;51.80
15967;DHT22;15175;48.154;11.534;2022-07-18T10:42:16;31.30;51.70
15967;DHT22;15175;48.154;11.534;2022-07-18T10:44:45;31.40;50.90
15967;DHT22;15175;48.154;11.534;2022-07-18T10:47:13;31.50;51.30
15967;DHT22;15175;48.154;11.534;2022-07-18T10:50:06;31.60;51.90
15967;DHT22;15175;48.154;11.534;2022-07-18T10:52:56;31.50;51.40
15967;DHT22;15175;48.154;11.534;2022-07-18T10:55:29;31.40;51.60
15967;DHT22;15175;48.154;11.534;2022-07-18T10:58:18;31.60;51.90
15967;DHT22;15175;48.154;11.534;2022-07-18T11:00:49;31.60;51.10
15967;DHT22;15175;48.154;11.534;2022-07-18T11:03:22;31.60;50.70
15967;DHT22;15175;48.154;11.534;2022-07-18T11:05:54;31.80;51.30
15967;DHT22;15175;48.154;11.534;2022-07-18T11:08:21;31.80;51.30
15967;DHT22;15175;48.154;11.534;2022-07-18T11:11:20;31.80;50.60
15967;DHT22;15175;48.154;11.534;2022-07-18T11:13:48;31.50;51.00
15967;DHT22;15175;48.154;11.534;2022-07-18T11:16:20;31.40;51.10
15967;DHT22;15175;48.154;11.534;2022-07-18T11:19:19;31.40;51.80
15967;DHT22;15175;48.154;11.534;2022-07-18T11:21:46;31.10;52.00
15967;DHT22;15175;48.154;11.534;2022-07-18T11:24:13;30.90;52.60
15967;DHT22;15175;48.154;11.534;2022-07-18T11:26:45;30.60;52.60
15967;DHT22;15175;48.154;11.534;2022-07-18T11:29:16;30.30;52.70
15967;DHT22;15175;48.154;11.534;2022-07-18T11:31:45;30.30;53.40
15967;DHT22;15175;48.154;11.534;2022-07-18T11:34:13;30.10;52.60
15967;DHT22;15175;48.154;11.534;2022-07-18T11:36:42;30.20;53.50
15967;DHT22;15175;48.154;11.534;2022-07-18T11:39:11;30.40;53.70
15967;DHT22;15175;48.154;11.534;2022-07-18T11:41:38;30.50;53.00
15967;DHT22;15175;48.154;11.534;2022-07-18T11:44:17;30.70;53.20
15967;DHT22;15175;48.154;11.534;2022-07-18T11:46:46;30.70;53.00
15967;DHT22;15175;48.154;11.534;2022-07-18T11:49:13;30.60;53.10
15967;DHT22;15175;48.154;11.534;2022-07-18T11:51:42;30.50;53.20
15967;DHT22;15175;48.154;11.534;2022-07-18T11:54:10;30.40;53.00
15967;DHT22;15175;48.154;11.534;2022-07-18T11:56:45;30.30;53.30
15967;DHT22;15175;48.154;11.534;2022-07-18T11:59:13;30.40;53.40
15967;DHT22;15175;48.154;11.534;2022-07-18T12:01:42;30.50;53.40
15967;DHT22;15175;48.154;11.534;2022-07-18T12:04:16;30.60;53.90
15967;DHT22;15175;48.154;11.534;2022-07-18T12:06:45;30.50;54.20
15967;DHT22;15175;48.154;11.534;2022-07-18T12:09:26;30.40;54.40
15967;DHT22;15175;48.154;11.534;2022-07-18T12:11:53;30.40;55.00
15967;DHT22;15175;48.154;11.534;2022-07-18T12:14:20;30.50;55.10
15967;DHT22;15175;48.154;11.534;2022-07-18T12:16:57;30.60;54.10
15967;DHT22;15175;48.154;11.534;2022-07-18T12:19:33;30.50;53.90
15967;DHT22;15175;48.154;11.534;2022-07-18T12:22:06;30.40;53.70
15967;DHT22;15175;48.154;11.534;2022-07-18T12:24:35;30.20;53.90
15967;DHT22;15175;48.154;11.534;2022-07-18T12:27:17;30.20;54.20
15967;DHT22;15175;48.154;11.534;2022-07-18T12:30:08;30.30;54.10
15967;DHT22;15175;48.154;11.534;2022-07-18T12:32:49;30.40;54.30
15967;DHT22;15175;48.154;11.534;2022-07-18T12:35:19;30.40;54.20
15967;DHT22;15175;48.154;11.534;2022-07-18T12:37:54;30.40;54.60
15967;DHT22;15175;48.154;11.534;2022-07-18T12:40:22;30.50;55.00
15967;DHT22;15175;48.154;11.534;2022-07-18T12:42:51;30.50;54.00
15967;DHT22;15175;48.154;11.534;2022-07-18T12:45:27;30.60;53.90
15967;DHT22;15175;48.154;11.534;2022-07-18T12:47:56;30.50;53.80
15967;DHT22;15175;48.154;11.534;2022-07-18T12:50:23;30.40;53.60
15967;DHT22;15175;48.154;11.534;2022-07-18T12:52:50;30.20;53.60
15967;DHT22;15175;48.154;11.534;2022-07-18T12:55:17;30.30;54.50
15967;DHT22;15175;48.154;11.534;2022-07-18T12:57:45;30.30;54.60
15967;DHT22;15175;48.154;11.534;2022-07-18T13:00:12;30.50;53.60
15967;DHT22;15175;48.154;11.534;2022-07-18T13:02:42;30.40;53.70
15967;DHT22;15175;48.154;11.534;2022-07-18T13:05:11;30.30;53.70
15967;DHT22;15175;48.154;11.534;2022-07-18T13:07:38;30.10;54.60
15967;DHT22;15175;48.154;11.534;2022-07-18T13:10:06;30.20;54.90
15967;DHT22;15175;48.154;11.534;2022-07-18T13:12:33;30.30;54.60
15967;DHT22;15175;48.154;11.534;2022-07-18T13:15:00;30.40;55.00
15967;DHT22;15175;48.154;11.534;2022-07-18T13:17:28;30.40;54.40
15967;DHT22;15175;48.154;11.534;2022-07-18T13:19:55;30.50;53.90
15967;DHT22;15175;48.154;11.534;2022-07-18T13:22:23;30.50;54.00
15967;DHT22;15175;48.154;11.534;2022-07-18T13:24:50;30.40;54.40
15967;DHT22;15175;48.154;11.534;2022-07-18T13:27:17;30.40;54.00
15967;DHT22;15175;48.154;11.534;2022-07-18T13:29:45;30.40;53.90
15967;DHT22;15175;48.154;11.534;2022-07-18T13:32:13;30.40;53.90
15967;DHT22;15175;48.154;11.534;2022-07-18T13:34:40;30.10;53.90
15967;DHT22;15175;48.154;11.534;2022-07-18T13:37:07;30.10;54.40
15967;DHT22;15175;48.154;11.534;2022-07-18T13:39:36;30.20;54.30
15967;DHT22;15175;48.154;11.534;2022-07-18T13:42:03;30.30;54.20
15967;DHT22;15175;48.154;11.534;2022-07-18T13:44:31;30.30;54.50
15967;DHT22;15175;48.154;11.534;2022-07-18T13:46:58;30.50;55.00
15967;DHT22;15175;48.154;11.534;2022-07-18T13:49:25;30.50;53.40
15967;DHT22;15175;48.154;11.534;2022-07-18T13:51:52;30.50;54.00
15967;DHT22;15175;48.154;11.534;2022-07-18T13:54:19;30.40;54.00
15967;DHT22;15175;48.154;11.534;2022-07-18T13:56:48;30.40;54.00
15967;DHT22;15175;48.154;11.534;2022-07-18T13:59:15;30.40;54.50
15967;DHT22;15175;48.154;11.534;2022-07-18T14:01:42;30.40;54.20
15967;DHT22;15175;48.154;11.534;2022-07-18T14:04:09;30.50;54.50
15967;DHT22;15175;48.154;11.534;2022-07-18T14:06:36;30.50;54.30
15967;DHT22;15175;48.154;11.534;2022-07-18T14:09:04;30.60;54.30
15967;DHT22;15175;48.154;11.534;2022-07-18T14:11:31;30.60;54.10
15967;DHT22;15175;48.154;11.534;2022-07-18T14:14:00;30.60;54.10
15967;DHT22;15175;48.154;11.534;2022-07-18T14:16:28;30.40;53.80
15967;DHT22;15175;48.154;11.534;2022-07-18T14:18:55;30.30;54.10
15967;DHT22;15175;48.154;11.534;2022-07-18T14:21:22;30.20;54.20
15967;DHT22;15175;48.154;11.534;2022-07-18T14:23:49;30.10;54.50
15967;DHT22;15175;48.154;11.534;2022-07-18T14:26:16;30.30;54.40
15967;DHT22;15175;48.154;11.534;2022-07-18T14:28:43;30.30;54.70
15967;DHT22;15175;48.154;11.534;2022-07-18T14:31:12;30.30;55.10
15967;DHT22;15175;48.154;11.534;2022-07-18T14:33:39;30.30;54.90
15967;DHT22;15175;48.154;11.534;2022-07-18T14:36:06;30.40;54.70
15967;DHT22;15175;48.154;11.534;2022-07-18T14:38:33;30.30;54.70
15967;DHT22;15175;48.154;11.534;2022-07-18T14:41:00;30.20;54.70
15967;DHT22;15175;48.154;11.534;2022-07-18T14:43:27;30.20;55.00
15967;DHT22;15175;48.154;11.534;2022-07-18T14:45:54;30.20;55.20
15967;DHT22;15175;48.154;11.534;2022-07-18T14:48:23;30.30;54.70
15967;DHT22;15175;48.154;11.534;2022-07-18T14:50:50;30.30;55.10
15967;DHT22;15175;48.154;11.534;2022-07-18T14:53:17;30.20;55.50
15967;DHT22;15175;48.154;11.534;2022-07-18T14:55:44;30.20;55.70
15967;DHT22;15175;48.154;11.534;2022-07-18T14:58:13;30.20;56.00
15967;DHT22;15175;48.154;11.534;2022-07-18T15:00:40;30.20;55.90
15967;DHT22;15175;48.154;11.534;2022-07-18T15:03:07;30.10;56.30
15967;DHT22;15175;48.154;11.534;2022-07-18T15:05:35;30.10;56.80
15967;DHT22;15175;48.154;11.534;2022-07-18T15:08:03;30.10;56.50
15967;DHT22;15175;48.154;11.534;2022-07-18T15:10:30;30.10;56.50
15967;DHT22;15175;48.154;11.534;2022-07-18T15:12:57;30.10;56.80
15967;DHT22;15175;48.154;11.534;2022-07-18T15:15:24;30.10;56.60
15967;DHT22;15175;48.154;11.534;2022-07-18T15:17:51;30.10;56.60
15967;DHT22;15175;48.154;11.534;2022-07-18T15:20:18;30.00;56.60
15967;DHT22;15175;48.154;11.534;2022-07-18T15:22:49;29.90;56.50
15967;DHT22;15175;48.154;11.534;2022-07-18T15:25:16;29.90;56.70